Time;durP1;ratioP1;P1;durP2;ratioP2;P2;SDS_P1;SDS_P2;PMS_P1;PMS_P2;Temp;Humidity;BMP_temperature;BMP_pressure;BME280_temperature;BME280_humidity;BME280_pressure;Samples;Min_cycle;Max_cycle;Signal;HPM_P1;HPM_P2
2021/06/30 00:02:24;;;;;;;1.60;1.50;;;17.60;99.90;;;;;;5072551;28;20236;-62
2021/06/30 00:04:51;;;;;;;3.77;1.30;;;17.70;99.90;;;;;;5072194;28;20208;-62
2021/06/30 00:07:18;;;;;;;2.70;1.50;;;17.70;99.90;;;;;;5072319;28;20224;-62
2021/06/30 00:09:44;;;;;;;4.93;1.50;;;17.70;99.90;;;;;;5072611;28;20201;-62
2021/06/30 00:12:11;;;;;;;5.57;1.50;;;17.60;99.90;;;;;;5072425;28;20209;-62
2021/06/30 00:14:38;;;;;;;1.57;1.47;;;17.50;99.90;;;;;;5072400;28;20205;-62
2021/06/30 00:17:06;;;;;;;3.43;1.60;;;17.60;99.90;;;;;;5072469;28;20227;-62
2021/06/30 00:19:35;;;;;;;1.40;1.30;;;17.70;99.90;;;;;;5072188;28;20221;-62
2021/06/30 00:22:02;;;;;;;5.93;1.70;;;17.80;99.90;;;;;;5072339;28;20410;-61
2021/06/30 00:24:28;;;;;;;1.77;1.43;;;17.80;99.90;;;;;;5071934;28;20205;-61
2021/06/30 00:26:55;;;;;;;2.00;1.50;;;17.90;99.90;;;;;;5072088;28;20232;-62
2021/06/30 00:29:22;;;;;;;1.35;1.25;;;18.00;99.90;;;;;;5071938;28;20213;-61
2021/06/30 00:31:48;;;;;;;3.63;1.67;;;18.00;99.90;;;;;;5072101;28;20665;-62
2021/06/30 00:34:15;;;;;;;3.25;1.50;;;18.10;99.90;;;;;;5071772;28;20673;-62
2021/06/30 00:36:46;;;;;;;4.07;1.58;;;18.10;99.90;;;;;;5072002;28;20590;-62
2021/06/30 00:39:15;;;;;;;1.80;1.70;;;18.10;99.90;;;;;;5071790;28;20260;-61
2021/06/30 00:41:42;;;;;;;1.67;1.50;;;18.20;99.90;;;;;;5073158;28;20209;-62
2021/06/30 00:44:09;;;;;;;2.70;1.47;;;18.20;99.90;;;;;;5072107;28;20204;-62
2021/06/30 00:46:36;;;;;;;4.40;1.50;;;18.30;99.90;;;;;;5071376;28;20339;-62
2021/06/30 00:49:05;;;;;;;3.10;1.70;;;18.30;99.90;;;;;;5071355;28;20204;-62
2021/06/30 00:51:32;;;;;;;1.60;1.50;;;18.40;99.90;;;;;;5070990;28;20216;-61
2021/06/30 00:54:01;;;;;;;3.50;1.63;;;18.40;99.90;;;;;;5071544;28;20212;-61
2021/06/30 00:56:28;;;;;;;1.55;1.45;;;18.50;99.90;;;;;;5071626;28;20228;-62
2021/06/30 00:58:56;;;;;;;2.17;1.20;;;18.60;99.90;;;;;;5071225;28;20227;-61
2021/06/30 01:01:24;;;;;;;2.13;1.30;;;18.60;99.90;;;;;;5071329;28;20200;-61
2021/06/30 01:03:52;;;;;;;4.10;1.42;;;18.60;99.90;;;;;;5071100;28;20677;-62
2021/06/30 01:06:19;;;;;;;3.80;1.42;;;18.60;99.90;;;;;;5071211;28;20240;-61
2021/06/30 01:08:46;;;;;;;3.47;1.35;;;18.60;99.90;;;;;;5071457;28;20201;-61
2021/06/30 01:11:15;;;;;;;3.53;1.30;;;18.60;99.90;;;;;;5071187;28;20209;-61
2021/06/30 01:13:42;;;;;;;3.38;1.73;;;18.70;99.90;;;;;;5071089;28;20208;-62
2021/06/30 01:16:09;;;;;;;2.13;1.65;;;18.80;99.90;;;;;;5071482;28;20225;-61
2021/06/30 01:18:37;;;;;;;4.63;2.00;;;18.80;99.90;;;;;;5071138;28;20225;-61
2021/06/30 01:21:06;;;;;;;4.32;1.80;;;18.90;99.90;;;;;;5071122;28;20664;-61
2021/06/30 01:23:34;;;;;;;1.80;1.40;;;19.00;99.90;;;;;;5071142;28;20216;-61
2021/06/30 01:26:01;;;;;;;2.72;1.58;;;18.90;99.90;;;;;;5071122;28;20719;-61
2021/06/30 01:28:28;;;;;;;4.53;1.50;;;18.90;99.90;;;;;;5071187;28;20212;-61
2021/06/30 01:30:56;;;;;;;3.50;1.35;;;18.90;99.90;;;;;;5071514;28;20212;-61
2021/06/30 01:33:23;;;;;;;1.30;1.10;;;18.80;99.90;;;;;;5071279;28;20204;-61
2021/06/30 01:35:51;;;;;;;1.60;1.20;;;18.90;99.90;;;;;;5071141;28;20224;-61
2021/06/30 01:38:21;;;;;;;1.80;1.10;;;18.80;99.90;;;;;;5071024;28;20578;-61
2021/06/30 01:40:49;;;;;;;1.83;0.95;;;18.70;99.90;;;;;;5070919;28;20719;-62
2021/06/30 01:43:16;;;;;;;4.35;1.38;;;18.60;99.90;;;;;;5070955;28;20201;-62
2021/06/30 01:45:43;;;;;;;2.88;1.52;;;18.60;99.90;;;;;;5071154;28;20731;-61
2021/06/30 01:48:10;;;;;;;1.90;1.48;;;18.60;99.90;;;;;;5071430;28;20299;-61
2021/06/30 01:50:37;;;;;;;2.90;1.30;;;18.60;99.90;;;;;;5071536;28;20200;-61
2021/06/30 01:53:04;;;;;;;2.28;1.50;;;18.70;99.90;;;;;;5071313;28;20209;-61
2021/06/30 01:55:32;;;;;;;3.42;1.10;;;18.70;99.90;;;;;;5071267;28;20228;-61
2021/06/30 01:58:00;;;;;;;1.00;0.88;;;18.70;99.90;;;;;;5070816;28;20224;-61
2021/06/30 02:00:27;;;;;;;1.52;0.88;;;18.70;99.90;;;;;;5070923;28;20251;-61
2021/06/30 02:02:54;;;;;;;2.50;1.05;;;18.70;99.90;;;;;;5072282;28;20672;-61
2021/06/30 02:05:22;;;;;;;1.60;0.88;;;18.60;99.90;;;;;;5074807;28;20656;-59
2021/06/30 02:07:50;;;;;;;2.15;0.98;;;18.60;99.90;;;;;;5074576;28;20205;-59
2021/06/30 02:10:18;;;;;;;1.00;0.70;;;18.60;99.90;;;;;;5074780;28;20209;-59
2021/06/30 02:12:45;;;;;;;0.90;0.70;;;18.50;99.90;;;;;;5075059;28;20208;-60
2021/06/30 02:15:17;;;;;;;2.80;1.00;;;18.50;99.90;;;;;;5074600;28;20212;-59
2021/06/30 02:17:43;;;;;;;1.47;0.80;;;18.50;99.90;;;;;;5074878;28;20588;-59
2021/06/30 02:20:12;;;;;;;3.03;0.73;;;18.50;99.90;;;;;;5074681;28;20220;-60
2021/06/30 02:22:40;;;;;;;0.85;0.85;;;18.50;99.90;;;;;;5074575;28;20212;-59
2021/06/30 02:25:09;;;;;;;0.98;0.77;;;18.40;99.90;;;;;;5074377;28;20209;-60
2021/06/30 02:27:36;;;;;;;2.05;0.90;;;18.40;99.90;;;;;;5074444;28;20209;-60
2021/06/30 02:30:05;;;;;;;3.00;1.05;;;18.40;99.90;;;;;;5074292;28;20680;-59
2021/06/30 02:32:33;;;;;;;2.50;0.90;;;18.30;99.90;;;;;;5074321;28;20216;-60
2021/06/30 02:35:00;;;;;;;3.03;0.80;;;18.30;99.90;;;;;;5073806;28;20232;-60
2021/06/30 02:37:27;;;;;;;3.95;1.02;;;18.30;99.90;;;;;;5074238;28;20216;-60
2021/06/30 02:39:53;;;;;;;2.05;0.63;;;18.40;99.90;;;;;;5074136;28;20232;-60
2021/06/30 02:42:20;;;;;;;2.72;1.00;;;18.30;99.90;;;;;;5074053;28;20205;-61
2021/06/30 02:44:47;;;;;;;2.50;0.88;;;18.30;99.90;;;;;;5073889;28;20672;-60
2021/06/30 02:47:13;;;;;;;1.05;0.70;;;18.30;99.90;;;;;;5073765;28;20236;-61
2021/06/30 02:49:41;;;;;;;4.20;0.73;;;18.30;99.90;;;;;;5073636;28;20205;-61
2021/06/30 02:52:09;;;;;;;1.73;0.55;;;18.30;99.90;;;;;;5074017;28;20609;-59
2021/06/30 02:54:36;;;;;;;2.28;0.70;;;18.30;99.90;;;;;;5073963;28;20209;-61
2021/06/30 02:57:03;;;;;;;0.60;0.50;;;18.30;99.90;;;;;;5074271;28;20251;-61
2021/06/30 02:59:29;;;;;;;0.77;0.60;;;18.30;99.90;;;;;;5074141;28;20221;-61
2021/06/30 03:01:56;;;;;;;1.45;0.57;;;18.10;99.90;;;;;;5074235;28;20200;-60
2021/06/30 03:04:23;;;;;;;1.25;0.70;;;18.00;99.90;;;;;;5073750;28;20224;-59
2021/06/30 03:06:51;;;;;;;1.00;0.85;;;18.00;99.90;;;;;;5073672;28;20759;-59
2021/06/30 03:09:19;;;;;;;0.88;0.45;;;17.90;99.90;;;;;;5073696;28;20503;-60
2021/06/30 03:11:46;;;;;;;1.48;0.40;;;18.00;99.90;;;;;;5073602;28;20562;-60
2021/06/30 03:14:13;;;;;;;2.55;0.50;;;17.90;99.90;;;;;;5072780;28;20652;-60
2021/06/30 03:16:39;;;;;;;1.17;0.55;;;17.90;99.90;;;;;;5073087;28;20229;-60
2021/06/30 03:19:06;;;;;;;0.50;0.50;;;18.00;99.90;;;;;;5073366;28;20218;-61
2021/06/30 03:21:33;;;;;;;2.43;0.50;;;18.00;99.90;;;;;;5073519;28;20212;-61
2021/06/30 03:24:01;;;;;;;2.28;0.40;;;17.90;99.90;;;;;;5073314;28;20200;-60
2021/06/30 03:26:28;;;;;;;1.20;0.30;;;17.90;99.90;;;;;;5073203;28;20252;-60
2021/06/30 03:28:55;;;;;;;0.75;0.40;;;17.80;99.90;;;;;;5072885;28;20715;-60
2021/06/30 03:31:22;;;;;;;0.50;0.20;;;17.80;99.90;;;;;;5072906;28;20685;-60
2021/06/30 03:33:48;;;;;;;2.42;0.30;;;17.70;99.90;;;;;;5073040;28;20209;-60
2021/06/30 03:36:15;;;;;;;1.00;0.20;;;17.70;99.90;;;;;;5073246;28;20229;-60
2021/06/30 03:38:42;;;;;;;1.17;0.50;;;17.70;99.90;;;;;;5073142;28;20551;-60
2021/06/30 03:41:10;;;;;;;1.37;0.70;;;17.70;99.90;;;;;;5073069;28;20232;-60
2021/06/30 03:43:36;;;;;;;1.85;0.40;;;17.70;99.90;;;;;;5072852;28;20205;-60
2021/06/30 03:46:03;;;;;;;1.65;0.90;;;17.70;99.90;;;;;;5072632;28;20767;-60
2021/06/30 03:48:30;;;;;;;0.90;0.60;;;17.70;99.90;;;;;;5072925;28;20288;-59
2021/06/30 03:50:56;;;;;;;0.40;0.40;;;17.80;99.90;;;;;;5073148;28;20209;-60
2021/06/30 03:53:23;;;;;;;2.40;1.00;;;17.80;99.90;;;;;;5072841;28;20205;-60
2021/06/30 03:55:50;;;;;;;1.00;0.80;;;17.80;99.90;;;;;;5072628;28;20228;-60
2021/06/30 03:58:18;;;;;;;1.67;0.60;;;17.80;99.90;;;;;;5072391;28;20217;-59
2021/06/30 04:00:44;;;;;;;0.40;0.40;;;17.80;99.90;;;;;;5072700;28;20225;-60
2021/06/30 04:03:11;;;;;;;2.75;1.70;;;17.80;99.90;;;;;;5072783;28;20216;-61
2021/06/30 04:05:38;;;;;;;1.87;1.20;;;17.80;99.90;;;;;;5072206;28;20228;-62
2021/06/30 04:08:08;;;;;;;1.80;0.93;;;17.80;99.90;;;;;;5072477;28;20209;-61
2021/06/30 04:10:35;;;;;;;1.50;0.73;;;17.90;99.90;;;;;;5072515;28;20208;-60
2021/06/30 04:13:03;;;;;;;0.47;0.43;;;18.00;99.90;;;;;;5072268;28;20205;-60
2021/06/30 04:15:31;;;;;;;1.92;1.25;;;18.00;99.90;;;;;;5072184;28;20663;-60
2021/06/30 04:17:59;;;;;;;2.88;2.22;;;18.00;99.90;;;;;;5072260;28;20212;-61
2021/06/30 04:20:27;;;;;;;1.35;1.00;;;18.00;99.90;;;;;;5072147;28;20267;-61
2021/06/30 04:22:54;;;;;;;1.52;1.25;;;18.00;99.90;;;;;;5071990;28;20279;-61
2021/06/30 04:25:21;;;;;;;2.20;0.93;;;18.00;99.90;;;;;;5070935;28;20225;-61
2021/06/30 04:27:47;;;;;;;1.27;0.85;;;18.00;99.90;;;;;;5071618;28;20669;-60
2021/06/30 04:30:15;;;;;;;3.33;0.50;;;18.10;99.90;;;;;;5072189;28;20201;-61
2021/06/30 04:32:43;;;;;;;0.85;0.80;;;18.10;99.90;;;;;;5072094;28;20254;-60
2021/06/30 04:35:10;;;;;;;5.00;1.48;;;18.10;99.90;;;;;;5071762;28;20221;-61
2021/06/30 04:37:37;;;;;;;1.60;0.77;;;18.10;99.90;;;;;;5071911;28;20209;-60
2021/06/30 04:40:05;;;;;;;4.60;0.65;;;18.10;99.90;;;;;;5071406;28;20247;-62
2021/06/30 04:42:31;;;;;;;1.85;0.90;;;18.10;99.90;;;;;;5071835;28;20235;-60
2021/06/30 04:44:58;;;;;;;0.88;0.50;;;18.00;99.90;;;;;;5071156;28;20724;-60
2021/06/30 04:47:25;;;;;;;0.73;0.70;;;18.00;99.90;;;;;;5071733;28;20208;-61
2021/06/30 04:49:53;;;;;;;2.85;0.52;;;18.00;99.90;;;;;;5071625;28;20205;-61
2021/06/30 04:52:19;;;;;;;0.90;0.60;;;18.00;99.90;;;;;;5071491;28;20209;-61
2021/06/30 04:54:46;;;;;;;2.58;1.00;;;18.10;99.90;;;;;;5071739;28;20212;-61
2021/06/30 04:57:13;;;;;;;25.35;16.20;;;18.20;99.90;;;;;;5072302;28;20229;-62
2021/06/30 04:59:39;;;;;;;2.05;1.63;;;18.20;99.90;;;;;;5071571;28;20205;-61
2021/06/30 05:02:06;;;;;;;1.77;0.57;;;18.40;99.90;;;;;;5071258;28;20676;-61
2021/06/30 05:04:33;;;;;;;0.40;0.40;;;18.50;99.90;;;;;;5071382;28;20209;-63
2021/06/30 05:07:01;;;;;;;1.02;0.40;;;18.60;99.90;;;;;;5071645;28;20232;-61
2021/06/30 05:09:28;;;;;;;2.58;1.50;;;18.70;99.90;;;;;;5071894;28;20207;-61
2021/06/30 05:11:54;;;;;;;1.17;0.63;;;18.70;99.90;;;;;;5071523;28;20547;-61
2021/06/30 05:14:21;;;;;;;1.77;0.60;;;18.70;99.90;;;;;;5071245;28;20213;-61
2021/06/30 05:16:48;;;;;;;1.33;0.70;;;18.80;99.90;;;;;;5071173;28;20228;-62
2021/06/30 05:19:14;;;;;;;0.68;0.50;;;19.00;99.90;;;;;;5071189;28;20212;-61
2021/06/30 05:21:41;;;;;;;1.38;0.80;;;19.30;99.90;;;;;;5070868;28;20228;-63
2021/06/30 05:24:09;;;;;;;2.85;0.60;;;19.60;99.90;;;;;;5071114;28;20579;-61
2021/06/30 05:26:36;;;;;;;1.00;0.35;;;20.10;99.90;;;;;;5070969;28;20228;-62
2021/06/30 05:29:02;;;;;;;3.15;0.50;;;20.60;99.90;;;;;;5071010;28;20204;-62
2021/06/30 05:31:29;;;;;;;0.88;0.50;;;20.90;99.90;;;;;;5071063;28;20205;-63
2021/06/30 05:33:56;;;;;;;0.50;0.38;;;21.00;99.90;;;;;;5070915;28;20208;-62
2021/06/30 05:36:22;;;;;;;2.95;0.68;;;21.10;99.90;;;;;;5070632;28;20225;-62
2021/06/30 05:38:49;;;;;;;0.52;0.40;;;21.20;99.90;;;;;;5070974;28;20204;-62
2021/06/30 05:41:17;;;;;;;1.17;0.70;;;21.60;99.90;;;;;;5070960;28;20229;-62
2021/06/30 05:43:44;;;;;;;0.85;0.35;;;22.40;99.90;;;;;;5071080;28;20209;-61
2021/06/30 05:46:11;;;;;;;1.15;0.45;;;22.60;99.90;;;;;;5071005;28;20252;-61
2021/06/30 05:48:37;;;;;;;1.10;0.60;;;22.40;99.90;;;;;;5070927;28;20201;-62
2021/06/30 05:51:05;;;;;;;1.42;0.50;;;22.30;99.90;;;;;;5071326;28;20205;-61
2021/06/30 05:53:32;;;;;;;2.80;0.68;;;22.10;99.90;;;;;;5070791;28;20619;-61
2021/06/30 05:55:59;;;;;;;3.33;1.10;;;22.00;99.90;;;;;;5071065;28;20231;-61
2021/06/30 05:58:27;;;;;;;1.38;0.60;;;22.10;99.90;;;;;;5071274;28;20262;-63
2021/06/30 06:00:54;;;;;;;1.55;0.32;;;22.80;99.90;;;;;;5070989;28;20231;-62
2021/06/30 06:03:20;;;;;;;1.60;0.52;;;23.30;99.90;;;;;;5070652;28;20209;-61
2021/06/30 06:05:47;;;;;;;0.50;0.40;;;23.50;99.90;;;;;;5070555;28;20243;-62
2021/06/30 06:08:14;;;;;;;1.77;0.40;;;23.30;99.90;;;;;;5070901;28;20216;-61
2021/06/30 06:10:41;;;;;;;2.17;0.40;;;23.10;99.90;;;;;;5071281;28;20197;-61
2021/06/30 06:13:08;;;;;;;3.92;0.80;;;22.90;99.90;;;;;;5070770;28;20211;-62
2021/06/30 06:15:36;;;;;;;6.63;0.70;;;22.60;99.90;;;;;;5070294;28;20754;-62
2021/06/30 06:18:06;;;;;;;2.05;0.80;;;22.60;99.90;;;;;;5070288;28;20212;-62
2021/06/30 06:20:33;;;;;;;0.90;0.57;;;22.60;99.90;;;;;;5070640;28;20611;-61
2021/06/30 06:23:00;;;;;;;1.23;0.52;;;22.50;99.90;;;;;;5071361;28;20220;-61
2021/06/30 06:25:27;;;;;;;1.27;0.80;;;22.60;99.90;;;;;;5071057;28;20224;-61
2021/06/30 06:27:53;;;;;;;1.20;0.88;;;22.60;99.90;;;;;;5071661;28;20549;-61
2021/06/30 06:30:21;;;;;;;1.33;0.90;;;22.60;99.90;;;;;;5071628;28;20208;-61
2021/06/30 06:32:49;;;;;;;1.65;0.57;;;22.60;99.90;;;;;;5071584;28;20652;-61
2021/06/30 06:35:15;;;;;;;4.53;0.40;;;22.60;99.90;;;;;;5071269;28;20224;-62
2021/06/30 06:37:42;;;;;;;0.55;0.45;;;22.60;99.90;;;;;;5071286;28;20688;-61
2021/06/30 06:40:10;;;;;;;0.75;0.60;;;22.60;99.90;;;;;;5071480;28;20225;-61
2021/06/30 06:42:37;;;;;;;2.75;0.50;;;22.80;99.90;;;;;;5070781;28;20244;-61
2021/06/30 06:45:05;;;;;;;1.60;0.40;;;23.30;99.90;;;;;;5070246;28;20688;-61
2021/06/30 06:47:32;;;;;;;0.40;0.40;;;24.00;99.90;;;;;;5070498;28;20669;-61
2021/06/30 06:50:00;;;;;;;0.60;0.40;;;24.40;99.90;;;;;;5073395;28;20209;-61
2021/06/30 06:52:27;;;;;;;1.30;0.50;;;24.70;99.90;;;;;;5074133;28;20675;-60
2021/06/30 06:54:54;;;;;;;1.33;0.40;;;24.70;99.90;;;;;;5073649;28;20303;-62
2021/06/30 06:57:20;;;;;;;1.05;0.52;;;24.80;99.90;;;;;;5073978;28;20201;-62
2021/06/30 06:59:47;;;;;;;1.15;0.55;;;25.00;99.90;;;;;;5073349;28;20211;-61
2021/06/30 07:02:14;;;;;;;2.40;0.50;;;25.70;99.90;;;;;;5073677;28;20350;-61
2021/06/30 07:04:40;;;;;;;2.90;0.43;;;26.70;99.00;;;;;;5073666;28;20212;-61
2021/06/30 07:07:09;;;;;;;1.08;0.32;;;28.70;93.80;;;;;;5073450;28;20734;-61
2021/06/30 07:09:35;;;;;;;4.28;0.50;;;30.40;88.70;;;;;;5073289;28;20216;-61
2021/06/30 07:12:02;;;;;;;0.40;0.20;;;31.70;79.40;;;;;;5073279;28;20208;-61
2021/06/30 07:14:29;;;;;;;1.33;0.50;;;33.30;72.50;;;;;;5073165;28;20692;-62
2021/06/30 07:16:55;;;;;;;0.75;0.30;;;34.60;64.90;;;;;;5073271;28;20597;-62
2021/06/30 07:19:22;;;;;;;1.70;0.30;;;34.70;59.90;;;;;;5073201;28;20258;-61
2021/06/30 07:21:49;;;;;;;1.92;0.57;;;34.90;59.60;;;;;;5073545;28;20471;-61
2021/06/30 07:24:17;;;;;;;2.83;0.40;;;35.80;56.30;;;;;;5074028;28;20574;-60
2021/06/30 07:26:44;;;;;;;0.47;0.28;;;37.10;53.40;;;;;;5073461;28;20229;-62
2021/06/30 07:29:10;;;;;;;0.65;0.22;;;38.20;50.20;;;;;;5073358;28;20228;-61
2021/06/30 07:31:37;;;;;;;0.90;0.30;;;38.50;48.80;;;;;;5073026;28;20201;-60
2021/06/30 07:34:04;;;;;;;0.95;0.57;;;37.70;47.80;;;;;;5072987;28;20689;-68
2021/06/30 07:36:31;;;;;;;1.00;0.47;;;37.70;47.90;;;;;;5073636;28;20240;-62
2021/06/30 07:38:58;;;;;;;1.20;0.25;;;37.10;48.30;;;;;;5073072;28;20571;-64
2021/06/30 07:41:26;;;;;;;1.10;0.40;;;35.50;49.80;;;;;;5072774;28;20295;-65
2021/06/30 07:43:53;;;;;;;2.65;0.43;;;34.00;52.20;;;;;;5073214;28;20208;-64
2021/06/30 07:46:20;;;;;;;0.93;0.52;;;32.50;54.90;;;;;;5072812;28;20713;-64
2021/06/30 07:48:46;;;;;;;1.65;0.60;;;31.00;57.70;;;;;;5073035;28;20209;-64
2021/06/30 07:51:13;;;;;;;1.17;0.65;;;29.70;60.10;;;;;;5072867;28;20204;-65
2021/06/30 07:53:42;;;;;;;2.10;0.50;;;28.70;63.40;;;;;;5072530;28;20205;-64
2021/06/30 07:56:10;;;;;;;0.63;0.60;;;27.90;65.80;;;;;;5072840;28;20228;-65
2021/06/30 07:58:39;;;;;;;0.77;0.65;;;27.30;66.20;;;;;;5072804;28;20205;-65
2021/06/30 08:01:05;;;;;;;1.48;0.30;;;28.10;66.00;;;;;;5072546;28;20225;-65
2021/06/30 08:03:32;;;;;;;2.35;0.55;;;30.00;62.50;;;;;;5072463;28;20673;-64
2021/06/30 08:05:59;;;;;;;3.42;0.30;;;30.90;59.60;;;;;;5095342;22;20229;-59
2021/06/30 08:08:26;;;;;;;1.00;0.50;;;32.00;56.00;;;;;;5072183;28;20205;-59
2021/06/30 08:10:52;;;;;;;3.78;0.52;;;33.40;54.40;;;;;;5072230;28;20205;-59
2021/06/30 08:13:19;;;;;;;1.67;0.77;;;33.90;52.20;;;;;;5072584;28;20209;-61
2021/06/30 08:15:47;;;;;;;1.85;0.47;;;33.70;52.20;;;;;;5072606;28;20692;-61
2021/06/30 08:18:14;;;;;;;0.88;0.50;;;34.00;51.60;;;;;;5072028;28;20665;-60
2021/06/30 08:20:43;;;;;;;0.80;0.40;;;34.00;51.50;;;;;;5071941;28;20205;-60
2021/06/30 08:23:09;;;;;;;0.82;0.50;;;33.70;51.50;;;;;;5071859;28;20205;-60
2021/06/30 08:25:36;;;;;;;0.65;0.40;;;33.40;52.00;;;;;;5071576;28;20312;-58
2021/06/30 08:28:03;;;;;;;2.20;1.00;;;33.50;51.90;;;;;;5071995;28;20209;-59
2021/06/30 08:30:29;;;;;;;18.15;16.27;;;33.10;52.40;;;;;;5072064;28;20200;-62
2021/06/30 08:32:57;;;;;;;0.75;0.47;;;32.60;53.20;;;;;;5071728;28;20201;-59
2021/06/30 08:35:24;;;;;;;1.38;0.63;;;32.10;54.40;;;;;;5071535;28;20648;-59
2021/06/30 08:37:54;;;;;;;0.68;0.30;;;31.60;54.50;;;;;;5071609;28;20263;-58
2021/06/30 08:40:21;;;;;;;0.43;0.40;;;31.30;54.70;;;;;;5071700;28;20270;-58
2021/06/30 08:42:48;;;;;;;2.15;0.60;;;31.00;55.60;;;;;;5071457;28;20235;-60
2021/06/30 08:45:15;;;;;;;0.85;0.50;;;30.80;55.80;;;;;;5071266;28;20694;-58
2021/06/30 08:47:43;;;;;;;1.45;1.10;;;30.50;56.70;;;;;;5071330;28;20259;-59
2021/06/30 08:50:13;;;;;;;1.60;0.30;;;30.30;57.50;;;;;;5071359;28;20684;-61
2021/06/30 08:52:41;;;;;;;1.95;0.88;;;29.60;58.80;;;;;;5071713;28;20197;-61
2021/06/30 08:55:09;;;;;;;1.05;0.25;;;28.90;59.60;;;;;;5071276;28;20205;-63
2021/06/30 08:57:37;;;;;;;0.50;0.50;;;28.20;61.70;;;;;;5071328;28;20225;-61
2021/06/30 09:00:06;;;;;;;5.95;1.00;;;27.60;65.70;;;;;;5071167;28;20205;-61
2021/06/30 09:02:33;;;;;;;4.40;1.08;;;27.00;73.30;;;;;;5071231;28;20282;-61
2021/06/30 09:05:12;;;;;;;4.95;0.82;;;26.10;79.70;;;;;;5071146;28;20209;-61
2021/06/30 09:07:40;;;;;;;1.55;0.80;;;25.30;83.80;;;;;;5070965;28;20223;-62
2021/06/30 09:10:08;;;;;;;2.88;1.00;;;24.60;89.20;;;;;;5071393;28;20219;-62
2021/06/30 09:12:38;;;;;;;0.63;0.30;;;24.10;92.50;;;;;;5070575;28;20630;-62
2021/06/30 09:15:16;;;;;;;0.63;0.30;;;23.50;94.10;;;;;;5070736;28;20223;-62
2021/06/30 09:17:43;;;;;;;0.20;0.20;;;23.10;95.00;;;;;;5071218;28;20211;-62
2021/06/30 09:20:11;;;;;;;1.10;0.25;;;22.90;97.90;;;;;;5071150;28;20204;-62
2021/06/30 09:22:48;;;;;;;0.88;0.30;;;22.90;99.90;;;;;;5070885;28;20712;-63
2021/06/30 09:25:30;;;;;;;0.57;0.25;;;23.10;99.90;;;;;;5070712;28;20204;-63
2021/06/30 09:27:57;;;;;;;1.80;0.35;;;23.70;99.90;;;;;;5071173;28;20208;-63
2021/06/30 09:30:24;;;;;;;2.03;1.05;;;24.40;99.90;;;;;;5070906;28;20682;-63
2021/06/30 09:33:04;;;;;;;0.10;0.10;;;25.20;98.40;;;;;;5071117;28;20209;-63
2021/06/30 09:35:34;;;;;;;0.22;0.22;;;25.90;97.50;;;;;;5070399;28;20246;-62
2021/06/30 09:38:30;;;;;;;1.10;0.40;;;26.50;96.10;;;;;;5070653;28;20240;-62
2021/06/30 09:40:57;;;;;;;0.88;0.22;;;26.60;93.50;;;;;;5072547;28;20270;-63
2021/06/30 09:43:27;;;;;;;0.32;0.15;;;26.60;91.70;;;;;;5089135;28;20206;-62
2021/06/30 09:45:55;;;;;;;2.42;0.40;;;26.60;91.90;;;;;;5090346;28;20230;-62
2021/06/30 09:48:33;;;;;;;1.38;0.47;;;26.50;91.30;;;;;;5089321;28;20648;-61
2021/06/30 09:51:01;;;;;;;0.98;0.47;;;26.40;91.10;;;;;;5091234;28;20208;-64
2021/06/30 09:53:34;;;;;;;1.13;0.95;;;26.20;92.80;;;;;;5091086;28;20671;-65
2021/06/30 09:56:12;;;;;;;0.20;0.20;;;25.90;92.00;;;;;;5090930;28;20230;-64
2021/06/30 09:58:39;;;;;;;0.40;0.40;;;25.80;92.00;;;;;;5090619;28;20663;-63
2021/06/30 10:01:17;;;;;;;0.60;0.40;;;25.70;93.70;;;;;;5089709;28;20426;-63
2021/06/30 10:03:44;;;;;;;1.73;0.40;;;25.90;94.00;;;;;;5090521;28;20200;-63
2021/06/30 10:06:28;;;;;;;0.82;0.63;;;26.10;94.00;;;;;;5090320;28;20236;-61
2021/06/30 10:08:57;;;;;;;0.70;0.30;;;26.20;92.30;;;;;;5090483;28;20401;-62
2021/06/30 10:11:24;;;;;;;0.25;0.20;;;26.10;92.20;;;;;;5090123;28;20208;-63
2021/06/30 10:13:51;;;;;;;1.67;0.65;;;26.00;89.50;;;;;;5090536;28;20204;-62
2021/06/30 10:16:19;;;;;;;1.40;0.50;;;25.90;90.10;;;;;;5090469;28;20228;-64
2021/06/30 10:18:48;;;;;;;2.50;0.52;;;26.00;90.00;;;;;;5090402;28;20215;-64
2021/06/30 10:21:17;;;;;;;4.53;0.70;;;25.80;90.20;;;;;;5091165;28;20220;-65
2021/06/30 10:23:44;;;;;;;0.32;0.20;;;26.00;90.20;;;;;;5091449;28;20231;-64
2021/06/30 10:26:12;;;;;;;0.47;0.10;;;26.10;88.50;;;;;;5094507;28;20254;-64
2021/06/30 10:28:40;;;;;;;0.65;0.60;;;26.00;87.80;;;;;;5094204;28;20649;-64
2021/06/30 10:31:07;;;;;;;1.60;0.93;;;25.50;90.30;;;;;;5094334;28;20215;-66
2021/06/30 10:33:38;;;;;;;0.50;0.50;;;25.00;91.60;;;;;;5094231;28;20204;-65
2021/06/30 10:36:06;;;;;;;2.53;0.50;;;24.50;92.80;;;;;;5093887;28;20771;-65
2021/06/30 10:38:50;;;;;;;1.45;1.25;;;24.10;95.60;;;;;;5093963;28;20208;-64
2021/06/30 10:41:38;;;;;;;1.52;0.60;;;23.60;96.70;;;;;;5094094;28;20211;-66
2021/06/30 10:44:10;;;;;;;0.57;0.35;;;23.20;97.20;;;;;;5093764;28;20698;-64
2021/06/30 10:46:37;;;;;;;0.50;0.30;;;22.60;97.80;;;;;;5093421;28;20277;-64
2021/06/30 10:49:26;;;;;;;0.73;0.50;;;22.90;97.90;;;;;;5093538;28;20257;-65
2021/06/30 10:51:55;;;;;;;2.22;1.90;;;22.90;97.30;;;;;;5093794;28;20683;-68
2021/06/30 10:54:52;;;;;;;2.20;1.75;;;23.10;97.90;;;;;;5093789;28;20219;-66
2021/06/30 10:57:29;;;;;;;0.80;0.47;;;23.50;97.30;;;;;;5093665;28;20224;-63
2021/06/30 11:00:19;;;;;;;1.05;0.38;;;23.70;96.00;;;;;;5093722;28;20204;-63
2021/06/30 11:03:06;;;;;;;0.70;0.30;;;23.80;96.00;;;;;;5093721;28;20224;-61
2021/06/30 11:05:34;;;;;;;0.35;0.30;;;23.90;95.50;;;;;;5093112;28;20254;-62
2021/06/30 11:08:01;;;;;;;0.20;0.20;;;24.00;95.90;;;;;;5093421;28;20231;-62
2021/06/30 11:10:51;;;;;;;0.68;0.60;;;24.30;94.10;;;;;;5093910;28;20295;-62
2021/06/30 11:13:19;;;;;;;0.90;0.55;;;24.50;93.80;;;;;;5093408;28;20204;-64
2021/06/30 11:15:46;;;;;;;0.30;0.20;;;24.90;93.50;;;;;;5092855;28;20729;-64
2021/06/30 11:18:46;;;;;;;1.75;0.43;;;25.30;93.10;;;;;;5093213;28;20581;-64
2021/06/30 11:21:15;;;;;;;1.42;0.98;;;25.40;91.30;;;;;;5078286;28;20212;-64
2021/06/30 11:23:43;;;;;;;2.95;1.15;;;25.20;91.70;;;;;;5092851;28;20591;-62
2021/06/30 11:26:32;;;;;;;5.78;1.70;;;25.10;93.00;;;;;;5093025;28;20273;-64
2021/06/30 11:29:00;;;;;;;4.22;1.17;;;24.60;96.40;;;;;;5093123;28;20204;-64
2021/06/30 11:31:41;;;;;;;1.63;0.77;;;24.10;99.90;;;;;;5093095;28;20213;-65
2021/06/30 11:34:21;;;;;;;2.83;0.80;;;23.80;99.90;;;;;;5092498;28;20204;-67
2021/06/30 11:36:48;;;;;;;0.88;0.55;;;23.60;99.90;;;;;;5092808;28;20224;-65
2021/06/30 11:39:17;;;;;;;1.98;0.93;;;23.60;99.90;;;;;;5093259;28;20207;-63
2021/06/30 11:41:46;;;;;;;1.75;0.40;;;23.70;99.90;;;;;;5093285;28;20696;-62
2021/06/30 11:44:14;;;;;;;0.82;0.30;;;23.90;99.90;;;;;;5093464;28;20261;-61
2021/06/30 11:46:44;;;;;;;2.00;0.50;;;24.10;99.90;;;;;;5093258;28;20224;-60
2021/06/30 11:49:16;;;;;;;1.15;0.57;;;24.30;99.90;;;;;;5092791;28;20208;-60
2021/06/30 11:51:43;;;;;;;0.88;0.77;;;24.40;99.90;;;;;;5093192;28;20208;-60
2021/06/30 11:54:14;;;;;;;1.52;1.42;;;24.40;99.90;;;;;;5092665;28;20671;-61
2021/06/30 11:56:43;;;;;;;2.40;0.50;;;24.40;99.90;;;;;;5092872;28;20764;-61
2021/06/30 11:59:19;;;;;;;2.13;0.68;;;24.50;99.90;;;;;;5092804;28;20204;-61
2021/06/30 12:01:48;;;;;;;0.70;0.60;;;24.50;97.80;;;;;;5092436;28;20286;-62
2021/06/30 12:04:17;;;;;;;1.38;0.90;;;24.40;98.00;;;;;;5092683;28;20209;-61
2021/06/30 12:06:45;;;;;;;3.22;0.95;;;24.10;99.90;;;;;;5092285;28;20236;-61
2021/06/30 12:09:17;;;;;;;2.33;1.33;;;23.60;99.90;;;;;;5092319;28;20208;-61
2021/06/30 12:11:46;;;;;;;2.63;0.60;;;23.20;99.90;;;;;;5092885;28;20209;-60
2021/06/30 12:14:15;;;;;;;4.88;2.22;;;23.00;99.90;;;;;;5092041;28;20303;-60
2021/06/30 12:16:48;;;;;;;1.23;0.88;;;23.30;99.90;;;;;;5092629;28;20224;-61
2021/06/30 12:19:17;;;;;;;1.25;0.50;;;23.00;99.90;;;;;;5092265;28;20204;-61
2021/06/30 12:21:45;;;;;;;3.67;0.70;;;23.40;99.90;;;;;;5092517;28;20223;-61
2021/06/30 12:24:17;;;;;;;0.73;0.50;;;23.80;99.90;;;;;;5092282;28;20260;-61
2021/06/30 12:27:02;;;;;;;1.83;0.50;;;24.10;99.90;;;;;;5092492;28;20224;-61
2021/06/30 12:29:30;;;;;;;0.80;0.57;;;24.30;99.90;;;;;;5092321;28;20456;-60
2021/06/30 12:31:58;;;;;;;1.00;0.52;;;24.20;99.90;;;;;;5092131;28;20208;-61
2021/06/30 12:34:25;;;;;;;0.82;0.55;;;23.60;99.90;;;;;;5091906;28;20298;-61
2021/06/30 12:36:52;;;;;;;1.38;0.77;;;22.60;99.90;;;;;;5091813;28;20235;-61
2021/06/30 12:39:23;;;;;;;2.67;0.85;;;22.00;99.90;;;;;;5091726;28;20243;-61
2021/06/30 12:41:55;;;;;;;0.65;0.50;;;21.70;99.90;;;;;;5091764;28;20671;-61
2021/06/30 12:44:22;;;;;;;1.23;0.80;;;21.50;99.90;;;;;;5091817;28;20204;-61
2021/06/30 12:47:12;;;;;;;0.98;0.60;;;21.70;99.90;;;;;;5091383;28;20708;-61
2021/06/30 12:49:40;;;;;;;1.85;0.40;;;22.00;99.90;;;;;;5091705;28;20218;-61
2021/06/30 12:52:20;;;;;;;1.33;0.80;;;22.60;99.90;;;;;;5091794;28;20204;-62
2021/06/30 12:55:06;;;;;;;3.80;0.60;;;23.20;99.90;;;;;;5091756;28;20207;-61